sensor_id;sensor_type;location;lat;lon;timestamp;pressure;altitude;pressure_sealevel;temperature;humidity
77120;BME280;66073;47.730;9.352;2023-04-25T00:02:04;96229.34;;;9.15;64.23
77120;BME280;66073;47.730;9.352;2023-04-25T00:04:30;96227.25;;;9.12;64.05
77120;BME280;66073;47.730;9.352;2023-04-25T00:06:59;96227.25;;;9.45;63.14
77120;BME280;66073;47.730;9.352;2023-04-25T00:09:27;96232.81;;;9.15;63.84
77120;BME280;66073;47.730;9.352;2023-04-25T00:11:52;96227.84;;;8.99;65.02
77120;BME280;66073;47.730;9.352;2023-04-25T00:14:18;96228.47;;;8.80;65.72
77120;BME280;66073;47.730;9.352;2023-04-25T00:16:43;96226.53;;;8.96;65.65
77120;BME280;66073;47.730;9.352;2023-04-25T00:19:09;96232.97;;;8.85;66.25
77120;BME280;66073;47.730;9.352;2023-04-25T00:21:36;96230.09;;;8.71;66.54
77120;BME280;66073;47.730;9.352;2023-04-25T00:24:03;96234.31;;;8.82;66.77
77120;BME280;66073;47.730;9.352;2023-04-25T00:26:29;96227.38;;;8.81;66.51
77120;BME280;66073;47.730;9.352;2023-04-25T00:28:55;96228.44;;;8.90;67.72
77120;BME280;66073;47.730;9.352;2023-04-25T00:31:22;96232.50;;;8.73;68.98
77120;BME280;66073;47.730;9.352;2023-04-25T00:33:47;96221.66;;;8.59;70.36
77120;BME280;66073;47.730;9.352;2023-04-25T00:36:13;96215.25;;;8.60;68.98
77120;BME280;66073;47.730;9.352;2023-04-25T00:38:39;96214.19;;;8.66;67.36
77120;BME280;66073;47.730;9.352;2023-04-25T00:41:08;96214.44;;;8.60;68.39
77120;BME280;66073;47.730;9.352;2023-04-25T00:43:36;96209.41;;;8.63;68.30
77120;BME280;66073;47.730;9.352;2023-04-25T00:46:01;96203.03;;;8.59;67.35
77120;BME280;66073;47.730;9.352;2023-04-25T00:48:27;96205.19;;;8.52;67.94
77120;BME280;66073;47.730;9.352;2023-04-25T00:50:55;96202.22;;;8.59;68.11
77120;BME280;66073;47.730;9.352;2023-04-25T00:53:23;96207.16;;;8.85;67.10
77120;BME280;66073;47.730;9.352;2023-04-25T00:55:49;96209.91;;;8.70;67.70
77120;BME280;66073;47.730;9.352;2023-04-25T00:58:22;96211.59;;;8.46;68.35
77120;BME280;66073;47.730;9.352;2023-04-25T01:00:49;96212.16;;;8.38;68.04
77120;BME280;66073;47.730;9.352;2023-04-25T01:03:16;96204.91;;;8.54;66.09
77120;BME280;66073;47.730;9.352;2023-04-25T01:05:43;96206.09;;;8.12;67.50
77120;BME280;66073;47.730;9.352;2023-04-25T01:08:09;96208.97;;;8.36;66.17
77120;BME280;66073;47.730;9.352;2023-04-25T01:10:35;96206.84;;;8.23;67.17
77120;BME280;66073;47.730;9.352;2023-04-25T01:13:01;96199.97;;;8.17;67.33
77120;BME280;66073;47.730;9.352;2023-04-25T01:15:28;96194.34;;;8.28;67.85
77120;BME280;66073;47.730;9.352;2023-04-25T01:17:55;96197.28;;;8.27;67.95
77120;BME280;66073;47.730;9.352;2023-04-25T01:20:22;96187.72;;;8.31;68.74
77120;BME280;66073;47.730;9.352;2023-04-25T01:22:49;96195.16;;;8.14;69.49
77120;BME280;66073;47.730;9.352;2023-04-25T01:25:15;96194.56;;;8.47;67.21
77120;BME280;66073;47.730;9.352;2023-04-25T01:27:41;96197.22;;;8.52;66.30
77120;BME280;66073;47.730;9.352;2023-04-25T01:30:07;96201.44;;;8.58;66.08
77120;BME280;66073;47.730;9.352;2023-04-25T01:32:33;96202.84;;;8.35;68.50
77120;BME280;66073;47.730;9.352;2023-04-25T01:35:11;96202.03;;;8.35;67.20
77120;BME280;66073;47.730;9.352;2023-04-25T01:37:40;96201.47;;;8.48;65.93
77120;BME280;66073;47.730;9.352;2023-04-25T01:40:07;96221.19;;;8.27;67.00
77120;BME280;66073;47.730;9.352;2023-04-25T01:42:35;96219.34;;;8.17;68.96
77120;BME280;66073;47.730;9.352;2023-04-25T01:45:02;96208.19;;;8.15;69.16
77120;BME280;66073;47.730;9.352;2023-04-25T01:47:28;96199.13;;;8.26;69.76
77120;BME280;66073;47.730;9.352;2023-04-25T01:49:54;96201.53;;;8.23;70.69
77120;BME280;66073;47.730;9.352;2023-04-25T01:52:19;96198.38;;;8.11;72.14
77120;BME280;66073;47.730;9.352;2023-04-25T01:54:45;96195.97;;;8.29;69.56
77120;BME280;66073;47.730;9.352;2023-04-25T01:57:11;96189.34;;;8.07;70.72
77120;BME280;66073;47.730;9.352;2023-04-25T01:59:37;96189.84;;;8.14;69.92
77120;BME280;66073;47.730;9.352;2023-04-25T02:02:03;96183.31;;;7.81;71.83
77120;BME280;66073;47.730;9.352;2023-04-25T02:04:29;96186.78;;;7.61;72.02
77120;BME280;66073;47.730;9.352;2023-04-25T02:06:55;96180.38;;;7.87;70.65
77120;BME280;66073;47.730;9.352;2023-04-25T02:09:21;96190.75;;;7.23;74.56
77120;BME280;66073;47.730;9.352;2023-04-25T02:11:47;96194.22;;;7.49;73.47
77120;BME280;66073;47.730;9.352;2023-04-25T02:14:13;96187.06;;;7.44;74.99
77120;BME280;66073;47.730;9.352;2023-04-25T02:16:38;96181.75;;;7.34;75.70
77120;BME280;66073;47.730;9.352;2023-04-25T02:19:04;96174.03;;;7.28;76.26
77120;BME280;66073;47.730;9.352;2023-04-25T02:21:30;96175.63;;;7.29;73.47
77120;BME280;66073;47.730;9.352;2023-04-25T02:23:56;96183.56;;;6.98;76.11
77120;BME280;66073;47.730;9.352;2023-04-25T02:26:23;96174.03;;;7.13;76.39
77120;BME280;66073;47.730;9.352;2023-04-25T02:28:50;96170.28;;;6.93;77.85
77120;BME280;66073;47.730;9.352;2023-04-25T02:31:15;96175.84;;;6.77;79.00
77120;BME280;66073;47.730;9.352;2023-04-25T02:33:41;96165.41;;;6.45;80.05
77120;BME280;66073;47.730;9.352;2023-04-25T02:36:07;96168.88;;;6.45;80.76
77120;BME280;66073;47.730;9.352;2023-04-25T02:38:32;96169.41;;;6.53;81.15
77120;BME280;66073;47.730;9.352;2023-04-25T02:40:59;96177.19;;;6.84;79.38
77120;BME280;66073;47.730;9.352;2023-04-25T02:43:25;96172.34;;;6.61;78.63
77120;BME280;66073;47.730;9.352;2023-04-25T02:45:50;96173.09;;;6.41;80.33
77120;BME280;66073;47.730;9.352;2023-04-25T02:48:16;96177.00;;;6.24;81.12
77120;BME280;66073;47.730;9.352;2023-04-25T02:50:41;96184.88;;;6.09;81.25
77120;BME280;66073;47.730;9.352;2023-04-25T02:53:07;96177.16;;;6.02;82.01
77120;BME280;66073;47.730;9.352;2023-04-25T02:55:32;96182.13;;;5.93;82.04
77120;BME280;66073;47.730;9.352;2023-04-25T02:57:59;96180.00;;;5.90;82.15
77120;BME280;66073;47.730;9.352;2023-04-25T03:00:25;96177.88;;;5.87;82.13
77120;BME280;66073;47.730;9.352;2023-04-25T03:02:51;96183.38;;;5.81;81.98
77120;BME280;66073;47.730;9.352;2023-04-25T03:05:16;96174.00;;;5.68;82.17
77120;BME280;66073;47.730;9.352;2023-04-25T03:07:42;96176.53;;;5.53;82.00
77120;BME280;66073;47.730;9.352;2023-04-25T03:10:09;96174.97;;;5.57;83.50
77120;BME280;66073;47.730;9.352;2023-04-25T03:12:35;96177.63;;;5.52;83.27
77120;BME280;66073;47.730;9.352;2023-04-25T03:15:00;96165.94;;;5.53;83.02
77120;BME280;66073;47.730;9.352;2023-04-25T03:17:26;96172.72;;;5.39;82.05
77120;BME280;66073;47.730;9.352;2023-04-25T03:19:51;96170.22;;;5.17;82.46
77120;BME280;66073;47.730;9.352;2023-04-25T03:22:17;96175.28;;;5.24;83.69
77120;BME280;66073;47.730;9.352;2023-04-25T03:24:43;96181.63;;;5.23;82.76
77120;BME280;66073;47.730;9.352;2023-04-25T03:27:08;96167.88;;;5.21;81.97
77120;BME280;66073;47.730;9.352;2023-04-25T03:29:34;96167.00;;;5.15;83.21
77120;BME280;66073;47.730;9.352;2023-04-25T03:31:59;96171.06;;;4.69;84.50
77120;BME280;66073;47.730;9.352;2023-04-25T03:34:25;96170.13;;;4.80;85.73
77120;BME280;66073;47.730;9.352;2023-04-25T03:36:51;96166.75;;;4.85;85.58
77120;BME280;66073;47.730;9.352;2023-04-25T03:39:17;96177.88;;;4.87;86.08
77120;BME280;66073;47.730;9.352;2023-04-25T03:41:42;96167.34;;;4.65;85.75
77120;BME280;66073;47.730;9.352;2023-04-25T03:44:07;96171.47;;;4.56;85.78
77120;BME280;66073;47.730;9.352;2023-04-25T03:46:33;96175.16;;;4.55;86.30
77120;BME280;66073;47.730;9.352;2023-04-25T03:48:58;96168.78;;;4.51;85.92
77120;BME280;66073;47.730;9.352;2023-04-25T03:51:24;96174.16;;;4.61;85.79
77120;BME280;66073;47.730;9.352;2023-04-25T03:53:51;96171.59;;;4.66;85.51
77120;BME280;66073;47.730;9.352;2023-04-25T03:56:17;96172.69;;;4.70;84.79
77120;BME280;66073;47.730;9.352;2023-04-25T03:58:42;96163.69;;;4.71;85.01
77120;BME280;66073;47.730;9.352;2023-04-25T04:01:08;96166.03;;;4.68;84.59
77120;BME280;66073;47.730;9.352;2023-04-25T04:03:34;96166.78;;;4.63;84.08
77120;BME280;66073;47.730;9.352;2023-04-25T04:06:01;96168.38;;;4.64;84.05
77120;BME280;66073;47.730;9.352;2023-04-25T04:08:28;96163.88;;;4.65;84.18
77120;BME280;66073;47.730;9.352;2023-04-25T04:10:53;96156.25;;;4.68;84.10
77120;BME280;66073;47.730;9.352;2023-04-25T04:13:19;96158.47;;;4.76;84.38
77120;BME280;66073;47.730;9.352;2023-04-25T04:15:44;96158.22;;;4.78;84.27
77120;BME280;66073;47.730;9.352;2023-04-25T04:18:10;96154.72;;;4.72;84.60
77120;BME280;66073;47.730;9.352;2023-04-25T04:20:35;96150.94;;;4.63;nan
77120;BME280;66073;47.730;9.352;2023-04-25T04:23:01;96148.94;;;4.48;84.21
77120;BME280;66073;47.730;9.352;2023-04-25T04:25:26;96149.66;;;3.95;85.34
77120;BME280;66073;47.730;9.352;2023-04-25T04:27:52;96150.47;;;3.79;86.63
77120;BME280;66073;47.730;9.352;2023-04-25T04:30:24;96155.53;;;4.03;87.31
77120;BME280;66073;47.730;9.352;2023-04-25T04:32:51;96156.78;;;4.17;86.26
77120;BME280;66073;47.730;9.352;2023-04-25T04:35:18;96157.41;;;4.29;85.32
77120;BME280;66073;47.730;9.352;2023-04-25T04:37:44;96156.91;;;4.32;85.36
77120;BME280;66073;47.730;9.352;2023-04-25T04:40:11;96150.41;;;4.39;84.83
77120;BME280;66073;47.730;9.352;2023-04-25T04:42:36;96151.06;;;4.52;84.67
77120;BME280;66073;47.730;9.352;2023-04-25T04:45:02;96151.97;;;4.62;85.12
77120;BME280;66073;47.730;9.352;2023-04-25T04:47:28;96151.84;;;4.74;84.24
77120;BME280;66073;47.730;9.352;2023-04-25T04:49:56;96146.50;;;4.69;84.39
77120;BME280;66073;47.730;9.352;2023-04-25T04:52:21;96153.41;;;4.75;84.87
77120;BME280;66073;47.730;9.352;2023-04-25T04:54:46;96154.41;;;4.95;83.99
77120;BME280;66073;47.730;9.352;2023-04-25T04:57:12;96166.41;;;5.08;83.64
77120;BME280;66073;47.730;9.352;2023-04-25T04:59:38;96167.34;;;5.24;83.68
77120;BME280;66073;47.730;9.352;2023-04-25T05:02:03;96169.78;;;5.30;82.71
77120;BME280;66073;47.730;9.352;2023-04-25T05:04:28;96167.25;;;5.14;83.28
77120;BME280;66073;47.730;9.352;2023-04-25T05:06:54;96163.41;;;4.99;84.05
77120;BME280;66073;47.730;9.352;2023-04-25T05:09:21;96157.81;;;4.91;85.04
77120;BME280;66073;47.730;9.352;2023-04-25T05:11:51;96161.66;;;5.42;85.06
77120;BME280;66073;47.730;9.352;2023-04-25T05:14:16;96156.31;;;5.79;84.56
77120;BME280;66073;47.730;9.352;2023-04-25T05:16:42;96154.16;;;5.71;83.49
77120;BME280;66073;47.730;9.352;2023-04-25T05:19:08;96161.28;;;5.65;84.27
77120;BME280;66073;47.730;9.352;2023-04-25T05:21:33;96153.00;;;5.88;84.09
77120;BME280;66073;47.730;9.352;2023-04-25T05:23:59;96152.56;;;6.12;83.37
77120;BME280;66073;47.730;9.352;2023-04-25T05:26:25;96149.41;;;6.25;83.10
77120;BME280;66073;47.730;9.352;2023-04-25T05:28:51;96148.09;;;6.22;83.04
77120;BME280;66073;47.730;9.352;2023-04-25T05:31:16;96152.56;;;6.12;83.21
77120;BME280;66073;47.730;9.352;2023-04-25T05:33:42;96148.63;;;6.19;83.05
77120;BME280;66073;47.730;9.352;2023-04-25T05:36:08;96152.72;;;6.52;82.88
77120;BME280;66073;47.730;9.352;2023-04-25T05:38:33;96149.56;;;6.70;82.02
77120;BME280;66073;47.730;9.352;2023-04-25T05:40:59;96152.72;;;6.52;82.01
77120;BME280;66073;47.730;9.352;2023-04-25T05:43:24;96154.34;;;6.73;81.64
77120;BME280;66073;47.730;9.352;2023-04-25T05:45:50;96151.97;;;6.82;81.02
77120;BME280;66073;47.730;9.352;2023-04-25T05:48:15;96156.78;;;7.05;81.70
77120;BME280;66073;47.730;9.352;2023-04-25T05:50:41;96161.25;;;6.89;81.92
77120;BME280;66073;47.730;9.352;2023-04-25T05:53:06;96152.00;;;7.02;82.26
77120;BME280;66073;47.730;9.352;2023-04-25T05:55:31;96157.84;;;7.29;81.33
77120;BME280;66073;47.730;9.352;2023-04-25T05:57:57;96148.56;;;7.52;80.94
77120;BME280;66073;47.730;9.352;2023-04-25T06:00:22;96148.00;;;7.50;80.16
77120;BME280;66073;47.730;9.352;2023-04-25T06:02:48;96148.47;;;7.87;79.18
77120;BME280;66073;47.730;9.352;2023-04-25T06:05:14;96145.25;;;8.01;78.37
77120;BME280;66073;47.730;9.352;2023-04-25T06:07:41;96150.06;;;7.88;78.66
77120;BME280;66073;47.730;9.352;2023-04-25T06:10:07;96153.59;;;7.59;80.04
77120;BME280;66073;47.730;9.352;2023-04-25T06:12:33;96162.31;;;7.79;80.14
77120;BME280;66073;47.730;9.352;2023-04-25T06:14:59;96151.72;;;7.39;80.06
77120;BME280;66073;47.730;9.352;2023-04-25T06:17:25;96146.44;;;7.49;78.99
77120;BME280;66073;47.730;9.352;2023-04-25T06:19:50;96139.75;;;7.77;79.14
77120;BME280;66073;47.730;9.352;2023-04-25T06:22:16;96147.34;;;8.09;77.96
77120;BME280;66073;47.730;9.352;2023-04-25T06:24:42;96143.16;;;7.87;77.76
77120;BME280;66073;47.730;9.352;2023-04-25T06:27:09;96143.13;;;7.92;78.04
77120;BME280;66073;47.730;9.352;2023-04-25T06:29:35;96136.44;;;8.15;75.28
77120;BME280;66073;47.730;9.352;2023-04-25T06:32:00;96141.31;;;7.88;73.76
77120;BME280;66073;47.730;9.352;2023-04-25T06:34:26;96144.47;;;7.95;74.99
77120;BME280;66073;47.730;9.352;2023-04-25T06:36:51;96140.63;;;8.41;74.02
77120;BME280;66073;47.730;9.352;2023-04-25T06:39:17;96135.44;;;8.60;72.88
77120;BME280;66073;47.730;9.352;2023-04-25T06:41:45;96135.00;;;8.48;72.22
77120;BME280;66073;47.730;9.352;2023-04-25T06:44:10;96137.84;;;8.62;72.04
77120;BME280;66073;47.730;9.352;2023-04-25T06:46:36;96137.88;;;8.95;71.85
77120;BME280;66073;47.730;9.352;2023-04-25T06:49:02;96131.09;;;8.74;71.83
77120;BME280;66073;47.730;9.352;2023-04-25T06:51:29;96125.09;;;8.98;69.94
77120;BME280;66073;47.730;9.352;2023-04-25T06:53:55;96125.53;;;9.72;67.89
77120;BME280;66073;47.730;9.352;2023-04-25T06:56:21;96133.00;;;9.13;68.26
77120;BME280;66073;47.730;9.352;2023-04-25T06:58:47;96129.00;;;9.10;69.08
77120;BME280;66073;47.730;9.352;2023-04-25T07:01:13;96128.22;;;9.38;68.03
77120;BME280;66073;47.730;9.352;2023-04-25T07:03:38;96127.03;;;9.26;67.91
77120;BME280;66073;47.730;9.352;2023-04-25T07:06:04;96128.19;;;9.10;67.68
77120;BME280;66073;47.730;9.352;2023-04-25T07:08:30;96130.06;;;9.95;66.27
77120;BME280;66073;47.730;9.352;2023-04-25T07:10:55;96129.84;;;9.68;66.86
77120;BME280;66073;47.730;9.352;2023-04-25T07:13:21;96127.28;;;9.58;67.92
77120;BME280;66073;47.730;9.352;2023-04-25T07:15:46;96127.50;;;10.38;65.61
77120;BME280;66073;47.730;9.352;2023-04-25T07:18:13;96128.50;;;9.94;65.09
77120;BME280;66073;47.730;9.352;2023-04-25T07:20:39;96123.34;;;9.79;66.99
77120;BME280;66073;47.730;9.352;2023-04-25T07:23:04;96131.06;;;9.52;68.04
77120;BME280;66073;47.730;9.352;2023-04-25T07:25:30;96134.03;;;9.45;66.71
77120;BME280;66073;47.730;9.352;2023-04-25T07:27:56;96137.91;;;9.29;64.59
77120;BME280;66073;47.730;9.352;2023-04-25T07:30:21;96136.06;;;9.25;66.96
77120;BME280;66073;47.730;9.352;2023-04-25T07:32:48;96149.38;;;9.30;68.83
77120;BME280;66073;47.730;9.352;2023-04-25T07:35:14;96147.03;;;8.84;69.78
77120;BME280;66073;47.730;9.352;2023-04-25T07:37:39;96142.69;;;8.99;71.64
77120;BME280;66073;47.730;9.352;2023-04-25T07:40:05;96144.56;;;8.93;70.83
77120;BME280;66073;47.730;9.352;2023-04-25T07:42:32;96157.47;;;9.10;70.94
77120;BME280;66073;47.730;9.352;2023-04-25T07:44:57;96150.41;;;8.46;71.67
77120;BME280;66073;47.730;9.352;2023-04-25T07:47:22;96164.75;;;8.55;73.02
77120;BME280;66073;47.730;9.352;2023-04-25T07:49:48;96167.56;;;7.99;72.28
77120;BME280;66073;47.730;9.352;2023-04-25T07:52:14;96185.44;;;7.59;75.72
77120;BME280;66073;47.730;9.352;2023-04-25T07:54:40;96187.28;;;6.97;78.62
77120;BME280;66073;47.730;9.352;2023-04-25T07:57:05;96193.03;;;6.64;80.78
77120;BME280;66073;47.730;9.352;2023-04-25T07:59:31;96201.00;;;6.69;80.60
77120;BME280;66073;47.730;9.352;2023-04-25T08:01:57;96200.94;;;6.54;81.12
77120;BME280;66073;47.730;9.352;2023-04-25T08:04:23;96210.53;;;6.65;82.33
77120;BME280;66073;47.730;9.352;2023-04-25T08:06:51;96208.41;;;6.67;82.65
77120;BME280;66073;47.730;9.352;2023-04-25T08:09:17;96216.16;;;6.74;83.12
77120;BME280;66073;47.730;9.352;2023-04-25T08:11:42;96220.69;;;6.93;82.83
77120;BME280;66073;47.730;9.352;2023-04-25T08:14:08;96220.41;;;6.80;83.44
77120;BME280;66073;47.730;9.352;2023-04-25T08:16:33;96226.50;;;6.85;82.82
77120;BME280;66073;47.730;9.352;2023-04-25T08:18:59;96225.97;;;6.88;81.30
77120;BME280;66073;47.730;9.352;2023-04-25T08:21:25;96229.06;;;6.60;82.29
77120;BME280;66073;47.730;9.352;2023-04-25T08:23:52;96222.50;;;6.73;79.79
77120;BME280;66073;47.730;9.352;2023-04-25T08:26:17;96233.88;;;6.63;80.34
77120;BME280;66073;47.730;9.352;2023-04-25T08:28:43;96233.88;;;6.63;80.85
77120;BME280;66073;47.730;9.352;2023-04-25T08:31:08;96242.75;;;6.99;80.40
77120;BME280;66073;47.730;9.352;2023-04-25T08:33:34;96231.34;;;7.14;80.70
77120;BME280;66073;47.730;9.352;2023-04-25T08:35:59;96233.66;;;6.80;80.38
77120;BME280;66073;47.730;9.352;2023-04-25T08:38:25;96233.09;;;6.78;81.79
77120;BME280;66073;47.730;9.352;2023-04-25T08:40:51;96247.63;;;6.55;81.19
77120;BME280;66073;47.730;9.352;2023-04-25T08:43:19;96245.84;;;6.76;80.34
77120;BME280;66073;47.730;9.352;2023-04-25T08:45:44;96242.41;;;6.85;81.04
77120;BME280;66073;47.730;9.352;2023-04-25T08:48:14;96241.84;;;6.68;82.75
77120;BME280;66073;47.730;9.352;2023-04-25T08:51:06;96252.16;;;6.65;81.90
77120;BME280;66073;47.730;9.352;2023-04-25T08:53:32;96256.72;;;6.79;81.11
77120;BME280;66073;47.730;9.352;2023-04-25T08:56:01;96252.19;;;6.70;81.39
77120;BME280;66073;47.730;9.352;2023-04-25T08:58:28;96256.22;;;6.77;81.59
77120;BME280;66073;47.730;9.352;2023-04-25T09:00:54;96263.34;;;6.72;80.85
77120;BME280;66073;47.730;9.352;2023-04-25T09:03:19;96263.13;;;6.88;80.15
77120;BME280;66073;47.730;9.352;2023-04-25T09:05:45;96264.72;;;6.84;81.14
77120;BME280;66073;47.730;9.352;2023-04-25T09:08:11;96278.47;;;6.81;80.85
77120;BME280;66073;47.730;9.352;2023-04-25T09:10:37;96280.09;;;6.82;81.74
77120;BME280;66073;47.730;9.352;2023-04-25T09:13:11;96285.97;;;6.99;81.07
77120;BME280;66073;47.730;9.352;2023-04-25T09:15:54;96292.28;;;6.88;80.81
77120;BME280;66073;47.730;9.352;2023-04-25T09:18:31;96292.09;;;6.95;81.02
77120;BME280;66073;47.730;9.352;2023-04-25T09:21:06;96290.81;;;7.13;80.82
77120;BME280;66073;47.730;9.352;2023-04-25T09:23:43;96304.63;;;7.25;81.30
77120;BME280;66073;47.730;9.352;2023-04-25T09:26:08;96300.44;;;7.49;79.39
77120;BME280;66073;47.730;9.352;2023-04-25T09:28:35;96302.03;;;7.55;80.15
77120;BME280;66073;47.730;9.352;2023-04-25T09:31:03;96306.03;;;7.53;79.34
77120;BME280;66073;47.730;9.352;2023-04-25T09:33:33;96307.38;;;7.80;78.76
77120;BME280;66073;47.730;9.352;2023-04-25T09:36:05;96311.59;;;7.81;79.84
77120;BME280;66073;47.730;9.352;2023-04-25T09:38:40;96314.72;;;7.33;79.83
77120;BME280;66073;47.730;9.352;2023-04-25T09:41:08;96312.16;;;8.09;81.36
77120;BME280;66073;47.730;9.352;2023-04-25T09:43:35;96316.94;;;8.12;81.64
77120;BME280;66073;47.730;9.352;2023-04-25T09:46:08;96321.44;;;8.46;81.10
77120;BME280;66073;47.730;9.352;2023-04-25T09:48:35;96318.34;;;8.99;81.00
77120;BME280;66073;47.730;9.352;2023-04-25T09:51:13;96326.50;;;8.33;79.11
77120;BME280;66073;47.730;9.352;2023-04-25T09:53:46;96321.69;;;8.50;80.28
77120;BME280;66073;47.730;9.352;2023-04-25T09:56:12;96319.25;;;9.33;79.12
77120;BME280;66073;47.730;9.352;2023-04-25T09:58:40;96319.41;;;9.52;76.79
77120;BME280;66073;47.730;9.352;2023-04-25T10:01:08;96316.03;;;9.36;76.70
77120;BME280;66073;47.730;9.352;2023-04-25T10:03:35;96325.16;;;9.25;75.75
77120;BME280;66073;47.730;9.352;2023-04-25T10:06:03;96319.13;;;8.99;77.07
77120;BME280;66073;47.730;9.352;2023-04-25T10:08:33;96329.41;;;8.52;77.10
77120;BME280;66073;47.730;9.352;2023-04-25T10:11:03;96331.53;;;8.44;76.68
77120;BME280;66073;47.730;9.352;2023-04-25T10:13:30;96329.41;;;8.52;76.66
77120;BME280;66073;47.730;9.352;2023-04-25T10:16:01;96332.31;;;8.50;77.58
77120;BME280;66073;47.730;9.352;2023-04-25T10:18:28;96323.22;;;8.71;75.45
77120;BME280;66073;47.730;9.352;2023-04-25T10:21:00;96326.44;;;8.73;76.20
77120;BME280;66073;47.730;9.352;2023-04-25T10:23:29;96331.63;;;9.04;74.90
77120;BME280;66073;47.730;9.352;2023-04-25T10:25:56;96332.28;;;8.70;75.98
77120;BME280;66073;47.730;9.352;2023-04-25T10:28:22;96328.97;;;9.09;75.06
77120;BME280;66073;47.730;9.352;2023-04-25T10:31:00;96330.41;;;8.76;75.14
77120;BME280;66073;47.730;9.352;2023-04-25T10:33:33;96331.69;;;8.93;75.18
77120;BME280;66073;47.730;9.352;2023-04-25T10:36:09;96322.03;;;9.13;73.63
77120;BME280;66073;47.730;9.352;2023-04-25T10:38:36;96332.88;;;9.26;73.63
77120;BME280;66073;47.730;9.352;2023-04-25T10:41:04;96329.63;;;8.65;76.21
77120;BME280;66073;47.730;9.352;2023-04-25T10:43:42;96335.97;;;8.84;75.89
77120;BME280;66073;47.730;9.352;2023-04-25T10:46:24;96330.19;;;8.47;75.18
77120;BME280;66073;47.730;9.352;2023-04-25T10:48:55;96332.88;;;8.27;77.40
77120;BME280;66073;47.730;9.352;2023-04-25T10:51:24;96334.41;;;8.68;75.93
77120;BME280;66073;47.730;9.352;2023-04-25T10:54:03;96337.03;;;8.78;75.45
77120;BME280;66073;47.730;9.352;2023-04-25T10:56:35;96337.06;;;8.73;75.68
77120;BME280;66073;47.730;9.352;2023-04-25T10:59:17;96332.94;;;9.11;74.03
77120;BME280;66073;47.730;9.352;2023-04-25T11:01:49;96338.50;;;9.15;74.00
77120;BME280;66073;47.730;9.352;2023-04-25T11:04:24;96336.34;;;9.17;71.97
77120;BME280;66073;47.730;9.352;2023-04-25T11:09:28;96350.16;;;9.29;70.69
77120;BME280;66073;47.730;9.352;2023-04-25T11:11:59;96343.25;;;9.72;69.95
77120;BME280;66073;47.730;9.352;2023-04-25T11:14:26;96334.31;;;9.53;69.77
77120;BME280;66073;47.730;9.352;2023-04-25T11:16:59;96337.97;;;10.39;65.88
77120;BME280;66073;47.730;9.352;2023-04-25T11:19:25;96345.53;;;10.56;65.55
77120;BME280;66073;47.730;9.352;2023-04-25T11:21:58;96338.22;;;10.09;68.19
77120;BME280;66073;47.730;9.352;2023-04-25T11:24:32;96337.28;;;11.05;65.07
77120;BME280;66073;47.730;9.352;2023-04-25T11:27:02;96332.59;;;10.44;67.35
77120;BME280;66073;47.730;9.352;2023-04-25T11:29:29;96337.75;;;10.60;68.86
77120;BME280;66073;47.730;9.352;2023-04-25T11:31:55;96338.44;;;10.70;67.28
77120;BME280;66073;47.730;9.352;2023-04-25T11:34:26;96339.13;;;10.57;64.41
77120;BME280;66073;47.730;9.352;2023-04-25T11:36:52;96331.53;;;10.69;64.99
77120;BME280;66073;47.730;9.352;2023-04-25T11:39:19;96318.63;;;10.24;65.03
77120;BME280;66073;47.730;9.352;2023-04-25T11:41:46;96322.53;;;10.60;64.77
77120;BME280;66073;47.730;9.352;2023-04-25T11:44:12;96330.06;;;10.29;64.67
77120;BME280;66073;47.730;9.352;2023-04-25T11:46:40;96327.41;;;10.53;63.29
77120;BME280;66073;47.730;9.352;2023-04-25T11:49:05;96322.59;;;11.03;63.82
77120;BME280;66073;47.730;9.352;2023-04-25T11:51:40;96325.91;;;11.18;64.77
77120;BME280;66073;47.730;9.352;2023-04-25T11:54:06;96343.06;;;10.88;65.88
77120;BME280;66073;47.730;9.352;2023-04-25T11:56:31;96333.56;;;10.25;69.22
77120;BME280;66073;47.730;9.352;2023-04-25T11:59:02;96349.91;;;9.30;69.43
77120;BME280;66073;47.730;9.352;2023-04-25T12:03:57;96345.91;;;9.28;72.45
77120;BME280;66073;47.730;9.352;2023-04-25T12:06:28;96352.75;;;9.44;72.22
77120;BME280;66073;47.730;9.352;2023-04-25T12:09:04;96351.91;;;9.92;72.51
77120;BME280;66073;47.730;9.352;2023-04-25T12:11:30;96354.06;;;9.90;72.38
77120;BME280;66073;47.730;9.352;2023-04-25T12:14:02;96358.81;;;9.99;71.33
77120;BME280;66073;47.730;9.352;2023-04-25T12:16:29;96372.66;;;10.01;71.46
77120;BME280;66073;47.730;9.352;2023-04-25T12:18:55;96377.94;;;9.13;73.38
77120;BME280;66073;47.730;9.352;2023-04-25T12:21:22;96372.63;;;9.03;75.27
77120;BME280;66073;47.730;9.352;2023-04-25T12:23:47;96370.38;;;9.35;75.00
77120;BME280;66073;47.730;9.352;2023-04-25T12:26:13;96356.91;;;9.60;73.52
77120;BME280;66073;47.730;9.352;2023-04-25T12:28:38;96364.53;;;9.38;73.70
77120;BME280;66073;47.730;9.352;2023-04-25T12:31:06;96369.59;;;9.34;71.56
77120;BME280;66073;47.730;9.352;2023-04-25T12:33:36;96365.88;;;9.74;73.17
77120;BME280;66073;47.730;9.352;2023-04-25T12:36:04;96367.31;;;10.68;68.20
77120;BME280;66073;47.730;9.352;2023-04-25T12:38:39;96370.19;;;11.01;66.82
77120;BME280;66073;47.730;9.352;2023-04-25T12:41:05;96371.50;;;10.17;69.95
77120;BME280;66073;47.730;9.352;2023-04-25T12:43:30;96386.34;;;10.85;70.52
77120;BME280;66073;47.730;9.352;2023-04-25T12:45:56;96374.53;;;10.68;69.08
77120;BME280;66073;47.730;9.352;2023-04-25T12:48:23;96376.97;;;10.64;69.63
77120;BME280;66073;47.730;9.352;2023-04-25T12:50:50;96377.78;;;11.36;68.34
77120;BME280;66073;47.730;9.352;2023-04-25T12:53:18;96380.56;;;11.68;65.38
77120;BME280;66073;47.730;9.352;2023-04-25T12:55:44;96371.31;;;12.17;65.25
77120;BME280;66073;47.730;9.352;2023-04-25T12:58:12;96373.94;;;12.54;64.38
77120;BME280;66073;47.730;9.352;2023-04-25T13:00:38;96374.72;;;12.22;60.23
77120;BME280;66073;47.730;9.352;2023-04-25T13:03:04;96362.31;;;12.45;59.73
77120;BME280;66073;47.730;9.352;2023-04-25T13:05:30;96365.97;;;12.95;58.09
77120;BME280;66073;47.730;9.352;2023-04-25T13:07:56;96366.88;;;12.45;57.43
77120;BME280;66073;47.730;9.352;2023-04-25T13:10:22;96363.06;;;12.78;57.56
77120;BME280;66073;47.730;9.352;2023-04-25T13:12:47;96358.38;;;12.56;57.67
77120;BME280;66073;47.730;9.352;2023-04-25T13:15:13;96353.88;;;12.98;57.42